FAN weather

Lista Airport
Farsund, Vest-Agder, Norway

Public forecast

Using degrees Celsius for public forecast. Weather courtesy of forecast.io.

METAR (pilot weather report)

Closest report is Kristiansand Airport, 46.7 nm (86.4 km) E. Retrieved 2019/03/26 23:50 UTC (10 minutes ago):

ENCN 262350Z AUTO 23005KT 9999 FEW015/// 06/05 Q1020

TAF (pilot weather forecast)

Forecast is more than 12 hours old.

Closest forecast is Kristiansand Airport, 46.7 nm (86.4 km) E. Retrieved 2016/05/06 12:39 UTC (3 years ago):

TAF TAF ENCN 061100Z 0612/0712 14008KT 9999 FEW040